Time;durP1;ratioP1;P1;durP2;ratioP2;P2;SDS_P1;SDS_P2;PMS_P1;PMS_P2;Temp;Humidity;BMP_temperature;BMP_pressure;BME280_temperature;BME280_humidity;BME280_pressure;Samples;Min_cycle;Max_cycle;Signal;HPM_P1;HPM_P2
2022/08/27 00:00:47;;;;;;;14.13;10.00;;;23.20;75.90;;;;;;5090485;28;20444;-48
2022/08/27 00:03:15;;;;;;;10.90;9.77;;;23.10;75.60;;;;;;5063942;28;20875;-48
2022/08/27 00:05:42;;;;;;;12.10;11.00;;;23.10;75.90;;;;;;5092013;28;20975;-48
2022/08/27 00:08:11;;;;;;;13.20;9.67;;;23.10;75.80;;;;;;5072164;28;20483;-48
2022/08/27 00:10:40;;;;;;;10.23;8.67;;;23.10;75.60;;;;;;5089199;28;20443;-48
2022/08/27 00:13:07;;;;;;;10.43;9.40;;;23.10;75.30;;;;;;5090142;28;20479;-48
2022/08/27 00:15:34;;;;;;;10.83;9.73;;;23.10;75.40;;;;;;5090101;28;20472;-47
2022/08/27 00:18:01;;;;;;;11.80;10.30;;;23.10;75.40;;;;;;5087401;28;20459;-48
2022/08/27 00:20:28;;;;;;;11.10;9.47;;;23.10;75.30;;;;;;5070654;28;20466;-48
2022/08/27 00:22:55;;;;;;;11.17;10.07;;;23.10;75.50;;;;;;5091045;28;20492;-48
2022/08/27 00:25:22;;;;;;;16.53;9.93;;;23.10;75.20;;;;;;5072126;28;20460;-48
2022/08/27 00:27:49;;;;;;;12.63;9.47;;;23.10;75.00;;;;;;5090278;28;20440;-48
2022/08/27 00:30:18;;;;;;;10.93;9.70;;;23.10;75.20;;;;;;5091411;28;20455;-48
2022/08/27 00:32:45;;;;;;;13.53;10.30;;;23.10;75.30;;;;;;5088827;28;20459;-48
2022/08/27 00:35:14;;;;;;;12.53;10.13;;;23.10;75.00;;;;;;5089810;28;20960;-47
2022/08/27 00:37:42;;;;;;;12.43;9.43;;;23.00;75.50;;;;;;5088967;28;20540;-47
2022/08/27 00:40:12;;;;;;;12.77;10.17;;;23.00;75.50;;;;;;5071877;28;20925;-48
2022/08/27 00:42:41;;;;;;;14.57;9.57;;;23.00;75.30;;;;;;5088927;28;20459;-48
2022/08/27 00:45:08;;;;;;;11.93;9.93;;;23.00;75.00;;;;;;5065055;28;20543;-48
2022/08/27 00:47:41;;;;;;;15.67;9.70;;;23.00;75.10;;;;;;5069872;28;20452;-48
2022/08/27 00:50:12;;;;;;;10.60;9.50;;;23.00;75.00;;;;;;5056538;28;20824;-48
2022/08/27 00:52:54;;;;;;;10.73;9.73;;;23.00;74.90;;;;;;5088721;28;20456;-48
2022/08/27 00:55:26;;;;;;;10.40;9.50;;;23.00;75.40;;;;;;5085867;28;20456;-48
2022/08/27 00:58:28;;;;;;;14.00;10.37;;;23.00;75.00;;;;;;5087010;28;20514;-48
2022/08/27 01:00:56;;;;;;;9.97;8.83;;;22.90;74.90;;;;;;5087159;28;20471;-48
2022/08/27 01:03:25;;;;;;;10.43;9.00;;;22.90;75.10;;;;;;5071166;28;21068;-48
2022/08/27 01:05:55;;;;;;;9.93;8.87;;;22.90;75.00;;;;;;5092496;28;21256;-48
2022/08/27 01:08:29;;;;;;;11.10;9.87;;;22.90;75.00;;;;;;5088259;28;20841;-48
2022/08/27 01:10:58;;;;;;;10.70;9.50;;;22.90;75.10;;;;;;5089201;28;20977;-48
2022/08/27 01:13:30;;;;;;;12.37;9.60;;;22.90;75.10;;;;;;5069313;28;20471;-48
2022/08/27 01:16:23;;;;;;;11.47;9.00;;;22.80;75.30;;;;;;5067393;28;20475;-48
2022/08/27 01:18:50;;;;;;;10.80;9.70;;;22.80;75.20;;;;;;5083351;28;21024;-48
2022/08/27 01:21:29;;;;;;;15.63;11.23;;;22.80;75.00;;;;;;5086430;28;20472;-48
2022/08/27 01:24:06;;;;;;;12.90;10.40;;;22.80;75.30;;;;;;5087250;28;20487;-48
2022/08/27 01:26:33;;;;;;;11.47;9.53;;;22.70;75.50;;;;;;5079156;28;20455;-48
2022/08/27 01:29:00;;;;;;;11.43;10.43;;;22.80;75.80;;;;;;5068800;28;20452;-48
2022/08/27 01:31:28;;;;;;;13.10;10.80;;;22.70;75.80;;;;;;5087842;28;21258;-48
2022/08/27 01:33:56;;;;;;;16.10;10.97;;;22.70;76.10;;;;;;5087922;28;20467;-48
2022/08/27 01:36:23;;;;;;;12.73;10.60;;;22.60;76.40;;;;;;5071650;28;20977;-48
2022/08/27 01:38:49;;;;;;;11.50;10.23;;;22.60;76.30;;;;;;5086219;28;20460;-48
2022/08/27 01:41:17;;;;;;;11.90;10.33;;;22.60;76.40;;;;;;5066306;28;20452;-48
2022/08/27 01:43:46;;;;;;;11.43;10.00;;;22.60;76.50;;;;;;5085213;28;20491;-48
2022/08/27 01:46:12;;;;;;;17.00;11.17;;;22.60;76.40;;;;;;5088786;28;20459;-48
2022/08/27 01:48:41;;;;;;;11.03;9.03;;;22.60;76.20;;;;;;5084629;28;20453;-48
2022/08/27 01:51:08;;;;;;;10.37;9.30;;;22.60;76.20;;;;;;5073143;28;20483;-48
2022/08/27 01:53:35;;;;;;;15.53;11.00;;;22.60;76.50;;;;;;5068763;28;20474;-48
2022/08/27 01:56:03;;;;;;;16.03;10.17;;;22.50;76.50;;;;;;5086639;28;20961;-48
2022/08/27 01:58:32;;;;;;;14.33;10.33;;;22.50;76.60;;;;;;5071112;28;20992;-48
2022/08/27 02:01:06;;;;;;;12.73;9.40;;;22.40;76.80;;;;;;5087806;28;20460;-48
2022/08/27 02:03:35;;;;;;;13.97;10.17;;;22.40;77.00;;;;;;5083422;28;20491;-48
2022/08/27 02:06:08;;;;;;;14.90;11.03;;;22.30;77.00;;;;;;5071174;28;20460;-48
2022/08/27 02:08:34;;;;;;;11.63;9.40;;;22.30;76.80;;;;;;5085956;28;20464;-48
2022/08/27 02:11:03;;;;;;;11.70;10.50;;;22.30;76.70;;;;;;5085973;28;20459;-48
2022/08/27 02:13:30;;;;;;;10.47;9.50;;;22.30;76.80;;;;;;5070772;28;20464;-48
2022/08/27 02:15:57;;;;;;;11.07;9.43;;;22.30;76.90;;;;;;5088003;28;20884;-47
2022/08/27 02:18:24;;;;;;;12.03;9.17;;;22.30;77.30;;;;;;5086496;28;20472;-48
2022/08/27 02:20:50;;;;;;;12.07;8.90;;;22.30;77.40;;;;;;5082727;28;20463;-48
2022/08/27 02:23:17;;;;;;;14.53;9.70;;;22.30;77.60;;;;;;5066087;28;20547;-48
2022/08/27 02:25:46;;;;;;;11.00;9.83;;;22.20;77.80;;;;;;5088178;28;20837;-48
2022/08/27 02:28:12;;;;;;;12.60;11.23;;;22.20;77.80;;;;;;5052591;28;21033;-48
2022/08/27 02:30:39;;;;;;;12.27;10.23;;;22.20;77.90;;;;;;5067969;28;20459;-48
2022/08/27 02:33:06;;;;;;;13.03;10.43;;;22.20;77.90;;;;;;5068094;28;20518;-48
2022/08/27 02:35:39;;;;;;;13.20;11.80;;;22.20;78.00;;;;;;5067816;28;20953;-49
2022/08/27 02:38:06;;;;;;;12.23;11.03;;;22.20;77.80;;;;;;5085853;28;20456;-48
2022/08/27 02:40:34;;;;;;;14.70;12.40;;;22.20;77.90;;;;;;5080478;28;20461;-48
2022/08/27 02:43:02;;;;;;;12.27;10.90;;;22.20;77.60;;;;;;5066582;28;20464;-46
2022/08/27 02:45:29;;;;;;;11.93;10.23;;;22.30;77.60;;;;;;5061301;28;20496;-46
2022/08/27 02:47:56;;;;;;;15.60;11.87;;;22.30;77.70;;;;;;5067017;28;20471;-48
2022/08/27 02:50:22;;;;;;;15.47;11.30;;;22.20;77.90;;;;;;5085270;28;21211;-47
2022/08/27 02:52:53;;;;;;;14.27;10.83;;;22.20;78.00;;;;;;5085984;28;20496;-46
2022/08/27 02:55:21;;;;;;;14.30;11.23;;;22.20;78.10;;;;;;5084887;28;20461;-46
2022/08/27 02:57:48;;;;;;;10.53;9.50;;;22.20;77.90;;;;;;5086325;28;20468;-46
2022/08/27 03:00:17;;;;;;;13.70;11.80;;;22.20;78.10;;;;;;5083329;28;20468;-46
2022/08/27 03:02:44;;;;;;;15.37;10.67;;;22.20;78.20;;;;;;5078650;28;20526;-46
2022/08/27 03:05:12;;;;;;;13.70;10.87;;;22.20;78.40;;;;;;5083890;28;20548;-47
2022/08/27 03:07:39;;;;;;;16.30;11.00;;;22.10;78.70;;;;;;5084363;28;20456;-46
2022/08/27 03:10:07;;;;;;;16.23;12.33;;;22.10;78.70;;;;;;5080591;28;20816;-47
2022/08/27 03:12:35;;;;;;;11.83;10.63;;;22.00;78.90;;;;;;5085446;28;20820;-47
2022/08/27 03:15:08;;;;;;;12.90;11.60;;;22.00;78.90;;;;;;5066997;28;20555;-47
2022/08/27 03:20:21;;;;;;;11.27;10.07;;;22.10;79.00;;;;;;5081407;28;20912;-47
2022/08/27 03:22:48;;;;;;;11.50;10.40;;;22.00;79.00;;;;;;5081682;28;20461;-47
2022/08/27 03:25:15;;;;;;;15.00;11.13;;;22.00;78.90;;;;;;5067029;28;20488;-46
2022/08/27 03:27:42;;;;;;;12.40;11.10;;;22.00;79.20;;;;;;5067050;28;20458;-46
2022/08/27 03:30:14;;;;;;;15.00;10.90;;;21.90;79.30;;;;;;5082444;28;20460;-46
2022/08/27 03:32:42;;;;;;;21.53;12.50;;;22.00;79.10;;;;;;5069259;28;20445;-47
2022/08/27 03:35:10;;;;;;;16.70;11.50;;;22.00;79.00;;;;;;5066543;28;20827;-47
2022/08/27 03:37:37;;;;;;;13.00;11.60;;;22.00;78.90;;;;;;5083474;28;20481;-47
2022/08/27 03:40:05;;;;;;;13.40;12.00;;;22.00;78.80;;;;;;5077286;28;20466;-46
2022/08/27 03:42:33;;;;;;;13.10;11.70;;;22.00;78.50;;;;;;5065052;28;20557;-46
2022/08/27 03:45:00;;;;;;;12.17;10.87;;;22.00;78.40;;;;;;5085184;28;20492;-47
2022/08/27 03:47:27;;;;;;;14.90;11.93;;;22.00;78.70;;;;;;5066264;28;20463;-47
2022/08/27 03:49:53;;;;;;;15.87;12.27;;;22.00;78.90;;;;;;5083937;28;20986;-47
2022/08/27 03:52:20;;;;;;;15.60;10.90;;;22.00;78.60;;;;;;5083275;28;20468;-46
2022/08/27 03:54:47;;;;;;;12.83;10.83;;;22.00;78.50;;;;;;5086404;28;20483;-46
2022/08/27 03:57:14;;;;;;;13.47;11.10;;;22.00;78.80;;;;;;5089009;28;20472;-46
2022/08/27 03:59:41;;;;;;;13.20;11.90;;;22.00;78.60;;;;;;5067075;28;20949;-47
2022/08/27 04:02:08;;;;;;;17.37;12.40;;;22.00;78.40;;;;;;5069435;28;20467;-47
2022/08/27 04:04:35;;;;;;;13.30;12.00;;;22.00;78.30;;;;;;5070503;28;20484;-46
2022/08/27 04:07:02;;;;;;;22.53;15.40;;;22.00;78.20;;;;;;5088747;28;20471;-46
2022/08/27 04:09:28;;;;;;;14.23;12.77;;;22.10;78.40;;;;;;5087451;28;20464;-47
2022/08/27 04:11:55;;;;;;;13.90;12.50;;;22.10;78.20;;;;;;5062819;28;21072;-47
2022/08/27 04:14:22;;;;;;;16.77;12.67;;;22.10;78.10;;;;;;5067065;28;20965;-46
2022/08/27 04:16:55;;;;;;;15.67;12.57;;;22.10;78.00;;;;;;5068584;28;20468;-47
2022/08/27 04:19:24;;;;;;;14.67;13.13;;;22.10;77.80;;;;;;5085163;28;20865;-47
2022/08/27 04:21:58;;;;;;;15.93;14.20;;;22.10;77.90;;;;;;5086683;28;20461;-46
2022/08/27 04:24:25;;;;;;;15.37;13.77;;;22.10;77.70;;;;;;5082350;28;20884;-46
2022/08/27 04:26:52;;;;;;;16.77;13.10;;;22.20;77.60;;;;;;5086088;28;20461;-47
2022/08/27 04:29:19;;;;;;;16.90;14.40;;;22.10;77.70;;;;;;5070800;28;20472;-47
2022/08/27 04:31:46;;;;;;;14.77;12.97;;;22.10;77.90;;;;;;5082601;28;20444;-47
2022/08/27 04:34:12;;;;;;;13.83;12.47;;;22.10;77.80;;;;;;5061598;28;20468;-46
2022/08/27 04:36:39;;;;;;;13.50;11.70;;;22.10;77.90;;;;;;5080415;28;20469;-46
2022/08/27 04:39:06;;;;;;;14.90;13.40;;;22.10;77.70;;;;;;5069055;28;20805;-47
2022/08/27 04:41:33;;;;;;;15.57;13.00;;;22.10;77.80;;;;;;5085322;28;20468;-46
2022/08/27 04:44:06;;;;;;;14.17;12.50;;;22.10;77.80;;;;;;5066579;28;20484;-47
2022/08/27 04:46:38;;;;;;;13.20;11.90;;;22.10;77.80;;;;;;5067656;28;20465;-47
2022/08/27 04:49:09;;;;;;;14.87;13.23;;;22.10;77.80;;;;;;5082177;28;20460;-47
2022/08/27 04:51:37;;;;;;;14.47;11.07;;;22.10;77.80;;;;;;5086931;28;20848;-46
2022/08/27 04:54:06;;;;;;;17.50;11.60;;;22.10;77.70;;;;;;5060820;28;20960;-47
2022/08/27 04:56:35;;;;;;;13.30;12.00;;;22.20;77.50;;;;;;5064773;28;22758;-47
2022/08/27 04:59:03;;;;;;;15.37;12.13;;;22.20;77.50;;;;;;5087154;28;20476;-47
2022/08/27 05:01:30;;;;;;;17.87;13.60;;;22.20;77.80;;;;;;5069857;28;20924;-47
2022/08/27 05:03:58;;;;;;;15.87;12.47;;;22.20;77.50;;;;;;5081671;28;20984;-46
2022/08/27 05:06:25;;;;;;;14.40;12.50;;;22.20;77.30;;;;;;5084695;28;20475;-46
2022/08/27 05:08:53;;;;;;;15.40;11.60;;;22.20;77.30;;;;;;5085985;28;20823;-46
2022/08/27 05:11:21;;;;;;;16.20;11.97;;;22.20;77.30;;;;;;5086200;28;20467;-47
2022/08/27 05:13:49;;;;;;;13.40;12.10;;;22.20;77.70;;;;;;5078026;28;20464;-46
2022/08/27 05:16:21;;;;;;;13.27;11.87;;;22.20;77.20;;;;;;5083054;28;20467;-47
2022/08/27 05:18:50;;;;;;;14.57;12.97;;;22.20;77.10;;;;;;5077607;28;20561;-46
2022/08/27 05:21:27;;;;;;;15.87;12.03;;;22.20;77.00;;;;;;5086012;28;20533;-47
2022/08/27 05:23:56;;;;;;;13.70;11.73;;;22.20;76.80;;;;;;5078587;28;20477;-46
2022/08/27 05:26:23;;;;;;;13.27;11.97;;;22.20;76.70;;;;;;5069371;28;20460;-47
2022/08/27 05:28:50;;;;;;;16.43;12.40;;;22.20;76.60;;;;;;5081449;28;20467;-47
2022/08/27 05:31:19;;;;;;;17.10;13.87;;;22.20;76.40;;;;;;5077198;28;20471;-47
2022/08/27 05:33:47;;;;;;;16.80;12.80;;;22.20;76.70;;;;;;5065952;28;20455;-47
2022/08/27 05:36:21;;;;;;;12.23;10.90;;;22.20;76.90;;;;;;5064109;28;20467;-47
2022/08/27 05:38:49;;;;;;;13.20;11.37;;;22.20;76.70;;;;;;5062613;28;20469;-47
2022/08/27 05:41:26;;;;;;;13.97;12.60;;;22.20;76.80;;;;;;5083232;28;22254;-47
2022/08/27 05:44:08;;;;;;;14.30;11.30;;;22.20;76.60;;;;;;5058772;28;21016;-46
2022/08/27 05:46:54;;;;;;;13.30;12.00;;;22.20;76.60;;;;;;5080467;28;20465;-46
2022/08/27 05:49:21;;;;;;;14.47;10.43;;;22.30;76.30;;;;;;5062597;28;20452;-46
2022/08/27 05:51:48;;;;;;;12.67;10.70;;;22.30;76.30;;;;;;5085478;28;20456;-46
2022/08/27 05:54:18;;;;;;;13.63;11.47;;;22.30;76.30;;;;;;5079658;28;20473;-47
2022/08/27 05:56:46;;;;;;;14.63;11.63;;;22.30;76.30;;;;;;5084939;28;20568;-47
2022/08/27 06:02:01;;;;;;;15.47;10.83;;;22.20;76.50;;;;;;5077135;28;20985;-49
2022/08/27 06:04:28;;;;;;;14.37;10.80;;;22.30;76.20;;;;;;5082570;28;20480;-47
2022/08/27 06:06:55;;;;;;;13.97;10.77;;;22.30;76.00;;;;;;5080587;28;20937;-47
2022/08/27 06:09:28;;;;;;;11.60;10.40;;;22.30;76.00;;;;;;5063749;28;20988;-47
2022/08/27 06:11:57;;;;;;;11.27;9.90;;;22.30;76.10;;;;;;5085665;28;20827;-46
2022/08/27 06:14:23;;;;;;;12.53;11.20;;;22.30;76.30;;;;;;5066001;28;20467;-47
2022/08/27 06:16:50;;;;;;;12.80;10.90;;;22.20;76.30;;;;;;5082679;28;20452;-47
2022/08/27 06:19:17;;;;;;;16.60;10.70;;;22.20;76.40;;;;;;5087668;28;20460;-48
2022/08/27 06:21:44;;;;;;;12.80;10.07;;;22.20;76.50;;;;;;5087315;28;20456;-48
2022/08/27 06:24:12;;;;;;;15.30;10.07;;;22.20;76.50;;;;;;5069790;28;20479;-48
2022/08/27 06:26:41;;;;;;;12.30;11.10;;;22.20;76.70;;;;;;5083928;28;20456;-48
2022/08/27 06:29:08;;;;;;;10.33;9.03;;;22.20;76.50;;;;;;5056054;28;20464;-48
2022/08/27 06:31:36;;;;;;;11.60;9.83;;;22.20;76.90;;;;;;5075140;28;20491;-48
2022/08/27 06:34:07;;;;;;;15.07;10.33;;;22.20;76.50;;;;;;5060474;28;20456;-48
2022/08/27 06:36:39;;;;;;;15.20;10.30;;;22.10;76.60;;;;;;5083041;28;20832;-48
2022/08/27 06:39:07;;;;;;;14.57;10.90;;;22.20;76.50;;;;;;5084203;28;20464;-48
2022/08/27 06:41:34;;;;;;;15.83;10.40;;;22.20;76.20;;;;;;5080799;28;20467;-48
2022/08/27 06:44:01;;;;;;;13.47;10.23;;;22.20;76.20;;;;;;5079246;28;20461;-48
2022/08/27 06:46:28;;;;;;;13.10;9.47;;;22.20;76.30;;;;;;5076175;28;21007;-48
2022/08/27 06:48:58;;;;;;;13.50;9.97;;;22.20;76.70;;;;;;5060778;28;20460;-48
2022/08/27 06:51:28;;;;;;;13.30;9.80;;;22.20;76.50;;;;;;5069555;28;20499;-48
2022/08/27 06:53:58;;;;;;;11.13;9.30;;;22.20;76.50;;;;;;5081167;28;22591;-48
2022/08/27 06:56:25;;;;;;;15.37;10.00;;;22.20;76.40;;;;;;5087713;28;20475;-48
2022/08/27 06:58:54;;;;;;;11.10;10.00;;;22.20;76.30;;;;;;5085614;28;20451;-48
2022/08/27 07:01:24;;;;;;;11.43;8.63;;;22.20;76.50;;;;;;5080598;28;20467;-48
2022/08/27 07:03:54;;;;;;;12.80;8.80;;;22.30;76.40;;;;;;5074354;28;20536;-48
2022/08/27 07:06:23;;;;;;;10.20;9.17;;;22.30;76.10;;;;;;5065733;28;20492;-48
2022/08/27 07:08:50;;;;;;;11.53;8.57;;;22.30;76.00;;;;;;5079741;28;20463;-48
2022/08/27 07:11:19;;;;;;;14.53;9.33;;;22.30;76.20;;;;;;5066664;28;20451;-48
2022/08/27 07:13:47;;;;;;;12.43;9.13;;;22.40;76.00;;;;;;5078894;28;20468;-48
2022/08/27 07:16:17;;;;;;;11.23;9.33;;;22.30;76.20;;;;;;5077409;28;20467;-48
2022/08/27 07:18:44;;;;;;;10.57;9.23;;;22.40;76.00;;;;;;5083733;28;20486;-48
2022/08/27 07:21:11;;;;;;;11.90;9.57;;;22.40;75.70;;;;;;5084361;28;20467;-48
2022/08/27 07:23:38;;;;;;;15.37;9.50;;;22.30;75.70;;;;;;5071103;28;20464;-48
2022/08/27 07:26:07;;;;;;;11.90;9.30;;;22.30;75.90;;;;;;5070658;28;20479;-48
2022/08/27 07:28:34;;;;;;;9.80;8.47;;;22.30;75.90;;;;;;5085018;28;20864;-48
2022/08/27 07:31:01;;;;;;;10.10;8.20;;;22.40;75.80;;;;;;5082325;28;20970;-48
2022/08/27 07:33:28;;;;;;;13.03;9.13;;;22.40;76.00;;;;;;5063234;28;20461;-48
2022/08/27 07:35:55;;;;;;;10.97;8.47;;;22.50;75.90;;;;;;5072331;28;20463;-48
2022/08/27 07:38:22;;;;;;;11.43;9.33;;;22.50;75.80;;;;;;5071806;28;20479;-48
2022/08/27 07:40:51;;;;;;;9.23;8.30;;;22.50;75.90;;;;;;5061433;28;20467;-47
2022/08/27 07:46:04;;;;;;;9.73;7.73;;;22.50;75.60;;;;;;5076247;28;20492;-48
2022/08/27 07:48:33;;;;;;;9.53;8.53;;;22.50;75.60;;;;;;5085156;28;21010;-48
2022/08/27 07:51:04;;;;;;;14.43;8.77;;;22.50;75.70;;;;;;5083435;28;20456;-48
2022/08/27 07:53:32;;;;;;;16.80;8.17;;;22.50;75.60;;;;;;5064696;28;20858;-48
2022/08/27 07:56:06;;;;;;;10.00;7.77;;;22.50;75.70;;;;;;5079965;28;20467;-48
2022/08/27 07:58:34;;;;;;;10.67;8.80;;;22.50;75.70;;;;;;5080006;28;20471;-48
2022/08/27 08:01:01;;;;;;;9.83;8.60;;;22.60;75.80;;;;;;5088907;28;20471;-48
2022/08/27 08:03:28;;;;;;;9.47;7.60;;;22.60;75.70;;;;;;5080636;28;20460;-48
2022/08/27 08:05:56;;;;;;;12.67;8.27;;;22.60;75.70;;;;;;5061636;28;20495;-48
2022/08/27 08:08:24;;;;;;;12.07;8.70;;;22.60;75.60;;;;;;5086829;28;20468;-48
2022/08/27 08:10:56;;;;;;;10.47;7.90;;;22.60;75.40;;;;;;5064196;28;20448;-48
2022/08/27 08:13:23;;;;;;;9.23;8.30;;;22.60;75.50;;;;;;5063801;28;20460;-48
2022/08/27 08:15:49;;;;;;;10.07;8.00;;;22.60;75.40;;;;;;5080989;28;21046;-48
2022/08/27 08:18:16;;;;;;;11.70;7.87;;;22.60;75.50;;;;;;5067622;28;20491;-48
2022/08/27 08:20:46;;;;;;;12.33;8.80;;;22.60;75.40;;;;;;5089210;28;20569;-48
2022/08/27 08:23:24;;;;;;;11.37;8.47;;;22.70;75.20;;;;;;5074271;28;20492;-48
2022/08/27 08:25:51;;;;;;;9.60;8.07;;;22.70;75.10;;;;;;5085397;28;20498;-48
2022/08/27 08:28:18;;;;;;;10.90;7.40;;;22.70;75.40;;;;;;5072320;28;20942;-48
2022/08/27 08:30:46;;;;;;;8.60;7.33;;;22.70;75.30;;;;;;5090876;28;20420;-48
2022/08/27 08:33:13;;;;;;;8.30;7.40;;;22.80;75.00;;;;;;5085839;28;20482;-48
2022/08/27 08:35:40;;;;;;;8.47;7.77;;;22.80;74.80;;;;;;5087013;28;20458;-48
2022/08/27 08:38:07;;;;;;;10.13;7.20;;;22.90;74.90;;;;;;5069932;28;20521;-48
2022/08/27 08:40:40;;;;;;;9.03;8.13;;;22.90;75.00;;;;;;5075412;28;21121;-47
2022/08/27 08:43:19;;;;;;;10.63;7.40;;;22.90;74.70;;;;;;5088225;28;20467;-48
2022/08/27 08:45:48;;;;;;;14.20;8.10;;;23.00;74.40;;;;;;5084799;28;20690;-48
2022/08/27 08:48:19;;;;;;;9.70;7.10;;;23.00;74.10;;;;;;5051101;28;20460;-48
2022/08/27 08:50:49;;;;;;;9.07;7.40;;;23.00;74.20;;;;;;5060554;28;20976;-47
2022/08/27 08:53:23;;;;;;;8.37;7.17;;;23.10;74.10;;;;;;5064182;28;20820;-47
2022/08/27 08:56:20;;;;;;;8.23;7.23;;;23.10;74.20;;;;;;5063641;28;20455;-48
2022/08/27 08:58:55;;;;;;;9.80;8.10;;;23.10;74.10;;;;;;5074532;28;20488;-48
2022/08/27 09:01:23;;;;;;;10.10;8.10;;;23.10;74.10;;;;;;5074158;28;20468;-48
2022/08/27 09:04:01;;;;;;;10.23;9.23;;;23.10;74.20;;;;;;5079314;28;21045;-48
2022/08/27 09:06:51;;;;;;;11.90;7.40;;;23.10;73.70;;;;;;5062736;28;20487;-48
2022/08/27 09:09:38;;;;;;;8.67;7.23;;;23.20;73.80;;;;;;5080448;28;21098;-48
2022/08/27 09:12:14;;;;;;;8.37;7.20;;;23.20;74.00;;;;;;5082067;28;20460;-48
2022/08/27 09:14:46;;;;;;;8.67;7.30;;;23.20;73.60;;;;;;5077117;28;20457;-47
2022/08/27 09:17:13;;;;;;;8.80;8.00;;;23.20;73.70;;;;;;5067957;28;20462;-47
2022/08/27 09:19:41;;;;;;;10.60;7.30;;;23.20;73.90;;;;;;5087624;28;20789;-47
2022/08/27 09:22:14;;;;;;;8.33;6.27;;;23.20;73.90;;;;;;5063458;28;20837;-48
2022/08/27 09:25:08;;;;;;;8.43;7.33;;;23.30;73.90;;;;;;5087285;28;20459;-48
2022/08/27 09:27:37;;;;;;;8.13;7.33;;;23.30;73.90;;;;;;5086598;28;20457;-47
2022/08/27 09:30:08;;;;;;;10.63;7.50;;;23.40;73.70;;;;;;5087786;28;20444;-47
2022/08/27 09:32:36;;;;;;;11.07;8.43;;;23.40;73.70;;;;;;5069832;28;20452;-47
2022/08/27 09:35:07;;;;;;;9.90;7.27;;;23.50;73.60;;;;;;5070378;28;20448;-47
2022/08/27 09:37:44;;;;;;;7.47;6.67;;;23.60;72.50;;;;;;5086003;28;20833;-48
2022/08/27 09:40:47;;;;;;;8.30;7.40;;;23.50;72.90;;;;;;5081476;28;20572;-48
2022/08/27 09:43:22;;;;;;;11.00;7.70;;;23.70;72.90;;;;;;5060182;28;20456;-47
2022/08/27 09:45:56;;;;;;;7.70;6.90;;;23.80;72.20;;;;;;5069380;28;20479;-48
2022/08/27 09:48:31;;;;;;;7.63;6.93;;;23.80;72.20;;;;;;5068497;28;20440;-48
2022/08/27 09:51:08;;;;;;;8.90;6.93;;;23.90;72.10;;;;;;5067602;28;20892;-48
2022/08/27 09:53:41;;;;;;;8.33;7.50;;;23.90;72.30;;;;;;5085797;28;20444;-48
2022/08/27 09:56:19;;;;;;;8.10;7.30;;;23.90;72.30;;;;;;5086502;28;20440;-47
2022/08/27 09:58:51;;;;;;;9.20;7.03;;;24.00;72.10;;;;;;5084565;28;20841;-48
2022/08/27 10:01:23;;;;;;;8.17;6.63;;;24.00;71.70;;;;;;5085814;28;20955;-47
2022/08/27 10:04:06;;;;;;;12.63;7.80;;;24.10;71.40;;;;;;5085723;28;20444;-47
2022/08/27 10:06:34;;;;;;;9.20;7.50;;;24.20;71.20;;;;;;5077574;28;21168;-48
2022/08/27 10:09:39;;;;;;;7.27;6.30;;;24.20;71.00;;;;;;5087047;28;20451;-48
2022/08/27 10:12:27;;;;;;;7.20;6.50;;;24.30;70.80;;;;;;4969565;28;20485;-47
2022/08/27 10:14:59;;;;;;;7.97;7.17;;;24.30;70.70;;;;;;5079705;28;20467;-48
2022/08/27 10:17:43;;;;;;;10.03;6.77;;;24.40;70.70;;;;;;5087834;28;20463;-48
2022/08/27 10:20:35;;;;;;;10.57;7.40;;;24.40;70.60;;;;;;5066457;28;20464;-48
2022/08/27 10:23:19;;;;;;;8.20;6.67;;;24.40;70.70;;;;;;5074954;28;20503;-48
2022/08/27 10:26:02;;;;;;;7.17;6.37;;;24.30;70.80;;;;;;5084192;28;20490;-48
2022/08/27 10:28:37;;;;;;;7.77;7.07;;;24.30;70.80;;;;;;5062346;28;20980;-48
2022/08/27 10:31:30;;;;;;;7.43;6.70;;;24.30;70.60;;;;;;5080931;28;20452;-48
2022/08/27 10:34:15;;;;;;;7.73;6.90;;;24.20;70.90;;;;;;5055734;28;20486;-48
2022/08/27 10:37:00;;;;;;;7.10;6.20;;;24.20;70.80;;;;;;5080186;28;20460;-48
2022/08/27 10:39:53;;;;;;;10.40;6.70;;;24.30;70.30;;;;;;5056532;28;20460;-48
2022/08/27 10:42:51;;;;;;;7.37;6.67;;;24.30;70.40;;;;;;5075955;28;20546;-48
2022/08/27 10:45:41;;;;;;;7.57;6.83;;;24.40;69.70;;;;;;5078767;28;20982;-48
2022/08/27 10:48:41;;;;;;;10.80;6.73;;;24.50;69.60;;;;;;5083890;28;20461;-48
2022/08/27 10:51:17;;;;;;;8.07;7.23;;;24.50;69.70;;;;;;5062824;28;20965;-48
2022/08/27 10:54:31;;;;;;;9.00;7.97;;;24.50;69.80;;;;;;5077014;28;20470;-48
2022/08/27 10:57:07;;;;;;;8.93;6.97;;;24.50;69.40;;;;;;5054334;28;20488;-48
2022/08/27 11:00:10;;;;;;;10.30;6.30;;;24.50;69.00;;;;;;5068691;28;20452;-48
2022/08/27 11:03:01;;;;;;;7.87;6.60;;;24.50;68.80;;;;;;5082540;28;20464;-48
2022/08/27 11:05:48;;;;;;;7.57;6.70;;;24.50;68.90;;;;;;5063157;28;20464;-48
2022/08/27 11:08:17;;;;;;;6.87;6.17;;;24.50;68.90;;;;;;5052775;28;20468;-48
2022/08/27 11:10:47;;;;;;;8.10;7.30;;;24.50;68.80;;;;;;5076613;28;20451;-48
2022/08/27 11:13:37;;;;;;;8.20;7.40;;;24.50;68.80;;;;;;5079635;28;20460;-48
2022/08/27 11:16:22;;;;;;;8.57;7.63;;;24.60;68.50;;;;;;5064119;28;21106;-48
2022/08/27 11:19:01;;;;;;;11.40;6.70;;;24.50;68.90;;;;;;5061139;28;20467;-48
2022/08/27 11:21:35;;;;;;;7.10;5.80;;;24.50;69.40;;;;;;5075734;28;20797;-48
2022/08/27 11:24:14;;;;;;;7.10;5.80;;;24.40;69.50;;;;;;5077411;28;21104;-48
2022/08/27 11:26:43;;;;;;;6.40;5.80;;;24.40;69.60;;;;;;5080653;28;20480;-48
2022/08/27 11:29:24;;;;;;;15.03;5.83;;;24.40;70.10;;;;;;5082071;28;20470;-48
2022/08/27 11:32:29;;;;;;;7.17;5.97;;;24.30;70.60;;;;;;5069197;28;20452;-48
2022/08/27 11:35:00;;;;;;;7.20;5.97;;;24.30;70.60;;;;;;5054711;28;20827;-48
2022/08/27 11:37:54;;;;;;;6.17;5.57;;;24.30;70.70;;;;;;5068912;28;20460;-48
2022/08/27 11:40:42;;;;;;;7.83;5.90;;;24.30;70.90;;;;;;5085590;28;20835;-48
2022/08/27 11:43:15;;;;;;;7.10;5.30;;;24.20;70.80;;;;;;5085726;28;20471;-48
2022/08/27 11:46:21;;;;;;;9.73;5.40;;;24.20;70.80;;;;;;5066326;28;20467;-48
2022/08/27 11:49:02;;;;;;;5.50;5.00;;;24.20;71.00;;;;;;5043733;28;20596;-48
2022/08/27 11:51:33;;;;;;;6.07;5.47;;;24.20;71.20;;;;;;5078407;28;20805;-48
2022/08/27 11:54:02;;;;;;;7.30;5.00;;;24.20;71.10;;;;;;5081243;28;20459;-48
2022/08/27 11:56:29;;;;;;;5.30;4.80;;;24.20;71.30;;;;;;5079979;28;20466;-48
2022/08/27 11:59:19;;;;;;;5.30;4.80;;;24.20;71.10;;;;;;5083705;28;20456;-48
2022/08/27 12:01:46;;;;;;;6.33;5.73;;;24.20;71.20;;;;;;5073422;28;20460;-48
2022/08/27 12:04:35;;;;;;;7.33;5.60;;;24.20;70.90;;;;;;5052258;28;20928;-48
2022/08/27 12:07:05;;;;;;;6.00;5.40;;;24.20;71.00;;;;;;5076854;28;20483;-49
2022/08/27 12:10:05;;;;;;;6.27;5.73;;;24.20;71.30;;;;;;5065758;28;20492;-49
2022/08/27 12:12:44;;;;;;;6.63;5.80;;;24.20;71.10;;;;;;5066466;28;20835;-49
2022/08/27 12:15:19;;;;;;;9.33;5.43;;;24.20;71.10;;;;;;5082720;28;20464;-49
2022/08/27 12:17:52;;;;;;;4.80;4.40;;;24.20;70.80;;;;;;5084511;28;20523;-49
2022/08/27 12:20:37;;;;;;;5.30;4.80;;;24.20;70.70;;;;;;5080593;28;20463;-49
2022/08/27 12:23:43;;;;;;;5.97;5.27;;;24.30;70.70;;;;;;5080896;28;20475;-49
2022/08/27 12:26:25;;;;;;;5.90;4.90;;;24.30;70.30;;;;;;4978574;28;20500;-49
2022/08/27 12:29:22;;;;;;;5.70;5.07;;;24.40;70.00;;;;;;4980085;28;20980;-49
2022/08/27 12:31:53;;;;;;;6.13;5.23;;;24.40;69.80;;;;;;5059267;28;20528;-49
2022/08/27 12:34:24;;;;;;;8.70;5.17;;;24.50;69.00;;;;;;5081224;28;20511;-48
2022/08/27 12:36:53;;;;;;;6.43;5.30;;;24.50;69.50;;;;;;5081163;28;20456;-49
2022/08/27 12:39:31;;;;;;;8.07;5.43;;;24.50;69.50;;;;;;5087495;28;20499;-49
2022/08/27 12:41:57;;;;;;;8.47;5.37;;;24.50;69.50;;;;;;5087644;28;20448;-49
2022/08/27 12:44:28;;;;;;;10.50;5.83;;;24.60;68.80;;;;;;5070733;28;20817;-49
2022/08/27 12:47:06;;;;;;;5.97;5.10;;;24.60;68.90;;;;;;5085651;28;20943;-49
2022/08/27 12:49:43;;;;;;;8.00;5.57;;;24.70;69.10;;;;;;5087583;28;20530;-49
2022/08/27 12:52:35;;;;;;;8.20;6.03;;;24.70;68.80;;;;;;5088544;28;20446;-49
2022/08/27 12:55:25;;;;;;;16.03;6.83;;;24.70;68.80;;;;;;5085307;28;20444;-49
2022/08/27 12:58:08;;;;;;;8.17;6.33;;;24.70;70.40;;;;;;5053862;28;20473;-49
2022/08/27 13:00:58;;;;;;;8.60;7.80;;;24.70;71.40;;;;;;5087737;28;20480;-49
2022/08/27 13:03:30;;;;;;;8.07;7.27;;;24.60;72.30;;;;;;5083962;28;20991;-49
2022/08/27 13:05:59;;;;;;;13.17;7.90;;;24.60;72.90;;;;;;5084033;28;20464;-49
2022/08/27 13:08:27;;;;;;;10.57;8.20;;;24.50;72.90;;;;;;5086716;28;20456;-49
2022/08/27 13:10:54;;;;;;;8.03;7.23;;;24.50;73.90;;;;;;5086079;28;20460;-49